Nearby METAR Reports

Aktualna pogoda na lotniskach (dane METAR)

 

EPGD - Gdansk/Rebiechow, Poland
Distance from station: ENE 27mi, 44km
Updated: Sat, 17-Apr-2021 12:00pm PDT
Clear
Clear
 Wind from N
Wind: N 5 mph , 7 km/h
Temperature: 43°F , 6°C
Wind Chill: 40°F , 4°C
Dew Point: 37°F , 3°C
Humidity: 81%
Barometer: 30.15 inHg , 1021 hPa
Summary: Clear
Visibility: greater than 7 miles , 10 km
2021/04/17 19:00 EPGD 171900Z 35004KT CAVOK 06/03 Q1021
EPSC - Szczecin/Golenio, Poland
Distance from station: WSW 128mi, 205km
Updated: Sat, 17-Apr-2021 12:00pm PDT
Mostly Cloudy
Mostly Cloudy
 Wind from N
Wind: N 6 mph , 9 km/h
Temperature: 46°F , 8°C
Wind Chill: 43°F , 6°C
Dew Point: 39°F , 4°C
Humidity: 76%
Barometer: 30.15 inHg , 1021 hPa
Clouds: Mostly Cloudy
Visibility: 6 miles , 10 km
Cloud details: Mostly Cloudy 4400 ft
2021/04/17 19:00 EPSC 171900Z 01005KT 340V050 9999 BKN044 08/04 Q1021
 
EPPO - Poznan/Lawica, Poland
Distance from station: SSW 131mi, 210km
Updated: Sat, 17-Apr-2021 12:00pm PDT
Mostly Cloudy
Mostly Cloudy
 Wind from S
Wind: S 2 mph , 4 km/h
Temperature: 46°F , 8°C
Dew Point: 43°F , 6°C
Humidity: 87%
Barometer: 30.12 inHg , 1020 hPa
Clouds: Mostly Cloudy
Visibility: 6 miles , 10 km
Cloud details: Mostly Cloudy 1900 ft
2021/04/17 19:00 EPPO 171900Z 18002KT 9999 BKN019 08/06 Q1020
EPLL - Lodz/Lublinek, Poland
Distance from station: SSE 184mi, 296km
Updated: Sat, 17-Apr-2021 12:00pm PDT
Mist, Mostly cloudy
Mist, Mostly cloudy
 Wind from SW
Wind: SW 3 mph , 6 km/h
Temperature: 43°F , 6°C
Dew Point: 43°F , 6°C
Humidity: 100%
Barometer: 30.09 inHg , 1019 hPa
Summary: Mist
Clouds: Mostly Cloudy
Visibility: 2 miles , 3 km
Cloud details: Partly Cloudy 500 ft
Mostly Cloudy 1400 ft
2021/04/17 19:00 EPLL 171900Z 23003KT 3300 BR SCT005 BKN014 06/06 Q1019
 
EPWA - Warsaw/Okecie, Poland
Distance from station: SE 191mi, 307km
Updated: Sat, 17-Apr-2021 12:00pm PDT
Shallow fog, Few clouds
Shallow fog, Few clouds
 Wind from ESE
Wind: ESE 2 mph , 4 km/h
Temperature: 43°F , 6°C
Dew Point: 41°F , 5°C
Humidity: 93%
Barometer: 30.06 inHg , 1018 hPa
Summary: Shallow Fog
Clouds: Few Clouds
Visibility: 6 miles , 10 km
Cloud details: Few Clouds 1100 ft
2021/04/17 19:00 EPWA 171900Z 12002KT 9999 MIFG FEW011 06/05 Q1018 NOSIG
EPWR - Wroclaw/Strachow, Poland
Distance from station: S 219mi, 352km
Updated: Sat, 17-Apr-2021 12:00pm PDT
Overcast
Overcast
 Wind from W
Wind: W 3 mph , 6 km/h
Temperature: 43°F , 6°C
Dew Point: 41°F , 5°C
Humidity: 93%
Barometer: 30.12 inHg , 1020 hPa
Clouds: Overcast
Visibility: 6 miles , 10 km
Cloud details: Overcast 1900 ft
2021/04/17 19:00 EPWR 171900Z 28003KT 9999 OVC019 06/05 Q1020

Metar display script from Saratoga-Weather.org